Time;durP1;ratioP1;P1;durP2;ratioP2;P2;SDS_P1;SDS_P2;PMS_P1;PMS_P2;Temp;Humidity;BMP_temperature;BMP_pressure;BME280_temperature;BME280_humidity;BME280_pressure;Samples;Min_cycle;Max_cycle;Signal;HPM_P1;HPM_P2
2024/01/10 00:00:11;;;;;;;19.58;9.95;;;;;;;;;;5074426;28;20032;-80
2024/01/10 00:02:37;;;;;;;19.10;9.77;;;;;;;;;;5054730;28;20029;-79
2024/01/10 00:05:03;;;;;;;19.52;9.18;;;;;;;;;;5046364;28;20438;-79
2024/01/10 00:07:29;;;;;;;18.05;8.15;;;;;;;;;;5045511;28;20108;-79
2024/01/10 00:09:57;;;;;;;24.15;9.48;;;;;;;;;;5048590;28;20089;-79
2024/01/10 00:12:23;;;;;;;20.92;8.40;;;;;;;;;;5052944;28;20123;-79
2024/01/10 00:14:49;;;;;;;14.52;7.55;;;;;;;;;;5041447;28;20078;-80
2024/01/10 00:17:15;;;;;;;16.38;7.90;;;;;;;;;;5074858;28;20044;-81
2024/01/10 00:19:41;;;;;;;17.30;8.43;;;;;;;;;;5059260;28;20422;-79
2024/01/10 00:22:08;;;;;;;17.05;8.60;;;;;;;;;;5057742;28;20036;-81
2024/01/10 00:24:34;;;;;;;18.33;7.88;;;;;;;;;;5041657;28;20085;-81
2024/01/10 00:27:00;;;;;;;15.70;8.25;;;;;;;;;;5037103;28;20060;-80
2024/01/10 00:29:26;;;;;;;16.98;7.72;;;;;;;;;;5055060;28;20021;-80
2024/01/10 00:31:59;;;;;;;14.35;7.25;;;;;;;;;;5078236;28;20028;-81
2024/01/10 00:34:25;;;;;;;14.68;7.13;;;;;;;;;;5061608;28;20492;-80
2024/01/10 00:36:51;;;;;;;16.45;7.90;;;;;;;;;;5053387;28;20479;-80
2024/01/10 00:39:17;;;;;;;15.27;7.38;;;;;;;;;;5045357;28;20041;-79
2024/01/10 00:41:43;;;;;;;15.65;7.57;;;;;;;;;;5059063;28;20392;-80
2024/01/10 00:44:09;;;;;;;19.48;7.47;;;;;;;;;;5052113;28;20024;-79
2024/01/10 00:46:36;;;;;;;15.02;7.28;;;;;;;;;;5044339;28;20025;-79
2024/01/10 00:49:02;;;;;;;13.43;6.78;;;;;;;;;;5050420;28;20525;-79
2024/01/10 00:51:29;;;;;;;12.55;6.20;;;;;;;;;;5044499;28;20030;-80
2024/01/10 00:53:55;;;;;;;13.18;7.38;;;;;;;;;;5043395;28;20026;-79
2024/01/10 00:56:23;;;;;;;13.48;6.97;;;;;;;;;;5054551;28;20054;-79
2024/01/10 00:58:50;;;;;;;17.73;7.45;;;;;;;;;;5077739;28;20473;-80
2024/01/10 01:01:16;;;;;;;23.10;9.73;;;;;;;;;;5093284;28;20023;-79
2024/01/10 01:03:42;;;;;;;24.10;10.32;;;;;;;;;;5072872;28;20052;-78
2024/01/10 01:06:11;;;;;;;19.95;9.50;;;;;;;;;;5053344;28;20048;-79
2024/01/10 01:08:38;;;;;;;20.95;9.10;;;;;;;;;;5052772;28;20028;-78
2024/01/10 01:11:04;;;;;;;22.63;9.55;;;;;;;;;;5038640;28;20022;-79
2024/01/10 01:13:30;;;;;;;24.58;10.70;;;;;;;;;;5062357;28;20094;-79
2024/01/10 01:15:56;;;;;;;22.40;10.30;;;;;;;;;;5048684;28;20071;-80
2024/01/10 01:18:23;;;;;;;25.67;11.48;;;;;;;;;;5047562;28;20064;-79
2024/01/10 01:20:50;;;;;;;35.15;13.32;;;;;;;;;;5050327;28;20025;-78
2024/01/10 01:23:16;;;;;;;28.42;13.25;;;;;;;;;;5053841;28;20132;-79
2024/01/10 01:25:42;;;;;;;29.70;13.25;;;;;;;;;;5049957;28;20059;-79
2024/01/10 01:28:08;;;;;;;31.25;13.15;;;;;;;;;;5039622;28;20047;-78
2024/01/10 01:30:35;;;;;;;31.83;13.25;;;;;;;;;;5062340;28;20082;-80
2024/01/10 01:33:04;;;;;;;28.15;11.80;;;;;;;;;;5055655;28;20013;-79
2024/01/10 01:35:30;;;;;;;26.45;11.77;;;;;;;;;;5050914;28;20052;-80
2024/01/10 01:37:56;;;;;;;25.33;11.70;;;;;;;;;;5038475;28;20396;-81
2024/01/10 01:40:22;;;;;;;26.20;10.98;;;;;;;;;;5050940;28;20040;-79
2024/01/10 01:42:53;;;;;;;26.25;11.30;;;;;;;;;;5062622;28;20033;-79
2024/01/10 01:45:19;;;;;;;27.60;11.88;;;;;;;;;;5043498;28;20041;-80
2024/01/10 01:47:46;;;;;;;24.77;11.02;;;;;;;;;;5059996;28;20394;-79
2024/01/10 01:50:12;;;;;;;25.58;11.23;;;;;;;;;;5043178;28;20101;-79
2024/01/10 01:52:38;;;;;;;28.73;12.18;;;;;;;;;;5041611;28;20078;-79
2024/01/10 01:55:05;;;;;;;21.30;10.20;;;;;;;;;;5042262;28;20083;-81
2024/01/10 01:57:31;;;;;;;25.77;10.63;;;;;;;;;;5042863;28;20030;-81
2024/01/10 01:59:58;;;;;;;21.42;9.70;;;;;;;;;;5053027;28;20394;-80
2024/01/10 02:02:25;;;;;;;25.50;11.32;;;;;;;;;;5046018;28;20025;-80
2024/01/10 02:04:51;;;;;;;26.90;12.05;;;;;;;;;;5047273;28;20029;-81
2024/01/10 02:07:20;;;;;;;27.25;11.95;;;;;;;;;;5044749;28;20064;-80
2024/01/10 02:09:47;;;;;;;29.52;12.65;;;;;;;;;;5051218;28;20371;-79
2024/01/10 02:12:13;;;;;;;30.13;11.73;;;;;;;;;;5053659;28;20017;-79
2024/01/10 02:14:39;;;;;;;26.83;11.45;;;;;;;;;;5047217;28;20025;-79
2024/01/10 02:17:05;;;;;;;31.38;12.93;;;;;;;;;;5042324;28;20026;-79
2024/01/10 02:19:32;;;;;;;25.90;10.93;;;;;;;;;;5047273;28;20025;-79
2024/01/10 02:21:58;;;;;;;26.10;11.48;;;;;;;;;;5039632;28;20029;-80
2024/01/10 02:24:24;;;;;;;25.83;11.45;;;;;;;;;;5057782;28;20379;-79
2024/01/10 02:26:50;;;;;;;24.38;11.32;;;;;;;;;;5065804;28;20032;-79
2024/01/10 02:29:17;;;;;;;27.23;10.80;;;;;;;;;;5062394;28;20033;-79
2024/01/10 02:31:43;;;;;;;25.10;10.45;;;;;;;;;;5064167;28;20482;-79
2024/01/10 02:34:10;;;;;;;23.85;10.07;;;;;;;;;;5043326;28;20049;-79
2024/01/10 02:36:36;;;;;;;23.25;10.57;;;;;;;;;;5042141;28;20036;-80
2024/01/10 02:39:02;;;;;;;20.92;9.45;;;;;;;;;;5045969;28;20074;-79
2024/01/10 02:41:28;;;;;;;20.70;9.43;;;;;;;;;;5037683;28;20105;-79
2024/01/10 02:43:58;;;;;;;22.13;8.95;;;;;;;;;;5037714;28;20014;-79
2024/01/10 02:46:27;;;;;;;21.33;9.93;;;;;;;;;;5046050;28;20357;-79
2024/01/10 02:48:53;;;;;;;20.17;9.45;;;;;;;;;;5046271;28;20033;-80
2024/01/10 02:51:19;;;;;;;22.65;10.02;;;;;;;;;;5049389;28;20025;-80
2024/01/10 02:53:45;;;;;;;20.45;9.88;;;;;;;;;;5042858;28;20028;-80
2024/01/10 02:56:11;;;;;;;24.30;11.18;;;;;;;;;;5050999;28;20037;-79
2024/01/10 02:58:37;;;;;;;23.40;11.30;;;;;;;;;;5057263;28;20041;-80
2024/01/10 03:01:04;;;;;;;27.40;11.98;;;;;;;;;;5065902;28;20025;-79
2024/01/10 03:03:30;;;;;;;28.25;11.77;;;;;;;;;;5064885;28;20036;-79
2024/01/10 03:05:56;;;;;;;25.65;11.60;;;;;;;;;;5048657;28;20025;-78
2024/01/10 03:08:22;;;;;;;28.38;11.73;;;;;;;;;;5046785;28;20040;-80
2024/01/10 03:10:48;;;;;;;26.05;11.88;;;;;;;;;;5048375;28;20363;-79
2024/01/10 03:13:14;;;;;;;23.58;10.35;;;;;;;;;;5039723;28;20025;-80
2024/01/10 03:15:40;;;;;;;23.10;11.05;;;;;;;;;;5057367;28;20050;-80
2024/01/10 03:18:06;;;;;;;29.52;11.60;;;;;;;;;;5047998;28;20025;-79
2024/01/10 03:20:32;;;;;;;25.80;10.88;;;;;;;;;;5038616;28;20031;-79
2024/01/10 03:22:58;;;;;;;21.48;10.63;;;;;;;;;;5044904;28;20022;-79
2024/01/10 03:25:24;;;;;;;26.10;10.82;;;;;;;;;;5053322;28;20031;-80
2024/01/10 03:27:51;;;;;;;19.52;9.00;;;;;;;;;;5076381;28;20032;-80
2024/01/10 03:30:18;;;;;;;25.42;11.13;;;;;;;;;;5072361;28;20030;-80
2024/01/10 03:32:44;;;;;;;29.52;13.35;;;;;;;;;;5091445;28;20029;-80
2024/01/10 03:35:10;;;;;;;22.33;9.73;;;;;;;;;;5082767;28;20041;-80
2024/01/10 03:37:36;;;;;;;25.25;11.15;;;;;;;;;;5055760;28;20025;-79
2024/01/10 03:40:03;;;;;;;20.77;9.23;;;;;;;;;;5054174;28;20125;-79
2024/01/10 03:42:29;;;;;;;25.02;11.05;;;;;;;;;;5046405;28;20021;-77
2024/01/10 03:44:55;;;;;;;25.42;11.65;;;;;;;;;;5060611;28;20016;-78
2024/01/10 03:47:21;;;;;;;23.52;10.60;;;;;;;;;;5048185;28;20037;-80
2024/01/10 03:49:47;;;;;;;24.20;11.40;;;;;;;;;;5044580;28;20028;-80
2024/01/10 03:52:13;;;;;;;25.83;10.65;;;;;;;;;;5039446;28;20395;-79
2024/01/10 03:54:40;;;;;;;23.98;10.02;;;;;;;;;;5037080;28;20021;-79
2024/01/10 03:57:06;;;;;;;25.42;10.55;;;;;;;;;;5052255;28;20041;-79
2024/01/10 03:59:33;;;;;;;24.38;11.02;;;;;;;;;;5061188;28;20028;-79
2024/01/10 04:02:00;;;;;;;26.10;11.70;;;;;;;;;;5052539;28;20095;-80
2024/01/10 04:04:26;;;;;;;25.33;10.82;;;;;;;;;;5052934;28;20369;-79
2024/01/10 04:06:53;;;;;;;25.02;11.25;;;;;;;;;;5048027;28;20040;-79
2024/01/10 04:09:19;;;;;;;23.33;10.60;;;;;;;;;;5047760;28;20239;-80
2024/01/10 04:11:45;;;;;;;22.80;10.13;;;;;;;;;;5047551;28;20075;-79
2024/01/10 04:14:12;;;;;;;23.20;10.73;;;;;;;;;;5054079;28;20395;-79
2024/01/10 04:16:38;;;;;;;25.40;10.48;;;;;;;;;;5039790;28;20025;-78
2024/01/10 04:19:04;;;;;;;25.20;11.05;;;;;;;;;;5054584;28;20021;-80
2024/01/10 04:21:31;;;;;;;27.17;11.25;;;;;;;;;;5049068;28;20029;-80
2024/01/10 04:23:57;;;;;;;21.40;10.68;;;;;;;;;;5042434;28;20032;-79
2024/01/10 04:26:23;;;;;;;25.40;10.90;;;;;;;;;;5055457;28;20424;-80
2024/01/10 04:28:49;;;;;;;27.20;10.88;;;;;;;;;;5040585;28;20025;-80
2024/01/10 04:31:15;;;;;;;28.70;12.30;;;;;;;;;;5067532;28;20471;-80
2024/01/10 04:33:41;;;;;;;29.25;12.23;;;;;;;;;;5043197;28;20105;-79
2024/01/10 04:36:08;;;;;;;24.27;10.88;;;;;;;;;;5060000;28;20044;-80
2024/01/10 04:38:34;;;;;;;23.27;11.00;;;;;;;;;;5070755;28;20023;-79
2024/01/10 04:41:00;;;;;;;26.38;12.00;;;;;;;;;;5052258;28;20025;-79
2024/01/10 04:43:26;;;;;;;28.40;11.70;;;;;;;;;;5046233;28;20082;-79
2024/01/10 04:45:52;;;;;;;24.77;11.10;;;;;;;;;;5040755;28;20033;-80
2024/01/10 04:48:18;;;;;;;28.60;11.77;;;;;;;;;;5033197;28;20037;-79
2024/01/10 04:50:44;;;;;;;24.08;9.27;;;;;;;;;;5060044;28;20105;-78
2024/01/10 04:53:10;;;;;;;22.90;9.50;;;;;;;;;;5061205;28;20025;-79
2024/01/10 04:55:36;;;;;;;24.02;10.23;;;;;;;;;;5046406;28;20017;-80
2024/01/10 04:58:03;;;;;;;21.67;9.60;;;;;;;;;;5042955;28;20033;-79
2024/01/10 05:00:29;;;;;;;19.13;8.90;;;;;;;;;;5061184;28;20055;-80
2024/01/10 05:02:55;;;;;;;20.92;9.02;;;;;;;;;;5072362;28;20084;-81
2024/01/10 05:05:23;;;;;;;17.30;7.97;;;;;;;;;;5040981;28;20029;-79
2024/01/10 05:07:50;;;;;;;17.40;8.48;;;;;;;;;;5054024;28;20036;-78
2024/01/10 05:10:16;;;;;;;19.10;7.63;;;;;;;;;;5058594;28;20480;-80
2024/01/10 05:12:43;;;;;;;21.42;9.18;;;;;;;;;;5052834;28;20029;-79
2024/01/10 05:15:09;;;;;;;25.65;10.63;;;;;;;;;;5052194;28;20105;-80
2024/01/10 05:17:35;;;;;;;22.58;9.43;;;;;;;;;;5043579;28;20021;-81
2024/01/10 05:20:01;;;;;;;22.13;10.43;;;;;;;;;;5036766;28;20083;-80
2024/01/10 05:22:27;;;;;;;23.83;10.05;;;;;;;;;;5048589;28;20033;-80
2024/01/10 05:24:53;;;;;;;24.95;10.90;;;;;;;;;;5047416;28;20025;-82
2024/01/10 05:27:19;;;;;;;23.55;9.75;;;;;;;;;;5045979;28;20033;-82
2024/01/10 05:29:47;;;;;;;24.65;8.98;;;;;;;;;;5061348;28;20098;-81
2024/01/10 05:32:13;;;;;;;22.67;10.85;;;;;;;;;;5066503;28;20045;-81
2024/01/10 05:34:39;;;;;;;22.17;9.32;;;;;;;;;;5050561;28;20058;-82
2024/01/10 05:37:05;;;;;;;20.58;8.95;;;;;;;;;;5053585;28;20374;-82
2024/01/10 05:39:32;;;;;;;22.90;9.45;;;;;;;;;;5061402;28;20021;-82
2024/01/10 05:41:58;;;;;;;23.77;9.73;;;;;;;;;;5048583;28;20403;-83
2024/01/10 05:44:25;;;;;;;20.00;9.10;;;;;;;;;;5045878;28;20055;-81
2024/01/10 05:46:51;;;;;;;22.38;8.98;;;;;;;;;;5051614;28;20215;-81
2024/01/10 05:49:17;;;;;;;18.58;7.93;;;;;;;;;;5053761;28;20481;-82
2024/01/10 05:51:43;;;;;;;21.15;9.50;;;;;;;;;;5049585;28;20026;-83
2024/01/10 05:54:10;;;;;;;20.08;8.48;;;;;;;;;;5068937;28;20049;-82
2024/01/10 05:56:36;;;;;;;19.05;9.05;;;;;;;;;;5054724;28;20448;-82
2024/01/10 05:59:02;;;;;;;25.40;9.15;;;;;;;;;;5057833;28;20033;-80
2024/01/10 06:01:29;;;;;;;29.05;10.35;;;;;;;;;;5070345;28;20406;-81
2024/01/10 06:03:55;;;;;;;24.13;9.63;;;;;;;;;;5058940;28;20121;-80
2024/01/10 06:06:21;;;;;;;23.42;10.82;;;;;;;;;;5068649;28;20038;-80
2024/01/10 06:08:47;;;;;;;27.77;10.25;;;;;;;;;;5056961;28;20112;-80
2024/01/10 06:11:13;;;;;;;27.75;10.73;;;;;;;;;;5056446;28;20026;-80
2024/01/10 06:13:39;;;;;;;25.48;10.32;;;;;;;;;;5062401;28;20030;-80
2024/01/10 06:16:07;;;;;;;25.67;10.82;;;;;;;;;;5063165;28;20032;-81
2024/01/10 06:18:34;;;;;;;26.52;11.00;;;;;;;;;;5067838;28;20031;-80
2024/01/10 06:21:00;;;;;;;22.48;9.00;;;;;;;;;;5063464;28;20030;-81
2024/01/10 06:23:26;;;;;;;23.02;9.10;;;;;;;;;;5076669;28;20016;-80
2024/01/10 06:25:54;;;;;;;21.60;9.32;;;;;;;;;;5068881;28;20408;-78
2024/01/10 06:28:20;;;;;;;24.55;9.50;;;;;;;;;;5045830;28;20483;-81
2024/01/10 06:30:47;;;;;;;25.10;9.82;;;;;;;;;;5065801;28;20041;-80
2024/01/10 06:33:13;;;;;;;25.08;9.73;;;;;;;;;;5064027;28;20022;-80
2024/01/10 06:35:39;;;;;;;22.80;10.23;;;;;;;;;;5051050;28;20085;-79
2024/01/10 06:38:06;;;;;;;23.67;10.40;;;;;;;;;;5065506;28;20017;-79
2024/01/10 06:40:32;;;;;;;22.45;8.75;;;;;;;;;;5058242;28;20025;-79
2024/01/10 06:42:58;;;;;;;21.58;9.77;;;;;;;;;;5080968;28;20087;-80
2024/01/10 06:45:24;;;;;;;19.45;8.88;;;;;;;;;;5055170;28;20041;-80
2024/01/10 06:47:50;;;;;;;21.67;8.60;;;;;;;;;;5072016;28;20097;-81
2024/01/10 06:50:19;;;;;;;21.50;9.27;;;;;;;;;;5062889;28;20051;-82
2024/01/10 06:52:45;;;;;;;21.88;9.80;;;;;;;;;;5072466;28;20020;-81
2024/01/10 06:55:11;;;;;;;26.15;10.18;;;;;;;;;;5071394;28;20017;-81
2024/01/10 06:57:37;;;;;;;21.02;9.50;;;;;;;;;;5056731;28;20012;-81
2024/01/10 07:00:06;;;;;;;21.52;9.20;;;;;;;;;;5093894;28;20028;-81
2024/01/10 07:02:35;;;;;;;26.17;10.40;;;;;;;;;;5078638;28;20120;-81
2024/01/10 07:05:01;;;;;;;23.27;9.68;;;;;;;;;;5069429;28;20045;-81
2024/01/10 07:07:27;;;;;;;24.80;9.57;;;;;;;;;;5044815;28;20025;-80
2024/01/10 07:09:56;;;;;;;26.52;9.55;;;;;;;;;;5063732;28;20044;-81
2024/01/10 07:12:23;;;;;;;22.63;9.15;;;;;;;;;;5063189;28;20036;-81
2024/01/10 07:14:49;;;;;;;20.73;8.70;;;;;;;;;;5061225;28;20033;-80
2024/01/10 07:17:15;;;;;;;23.33;8.85;;;;;;;;;;5054558;28;20095;-80
2024/01/10 07:19:41;;;;;;;21.25;8.88;;;;;;;;;;5041194;28;20041;-81
2024/01/10 07:22:08;;;;;;;25.20;8.77;;;;;;;;;;5092710;22;20104;-79
2024/01/10 07:24:34;;;;;;;23.90;9.82;;;;;;;;;;5069373;28;20028;-76
2024/01/10 07:27:01;;;;;;;24.58;9.90;;;;;;;;;;5049413;28;20025;-76
2024/01/10 07:29:27;;;;;;;19.98;8.52;;;;;;;;;;5063572;28;20029;-77
2024/01/10 07:31:54;;;;;;;22.63;8.57;;;;;;;;;;5074850;28;20032;-77
2024/01/10 07:34:21;;;;;;;22.48;8.75;;;;;;;;;;5055409;28;20032;-78
2024/01/10 07:36:47;;;;;;;21.95;9.55;;;;;;;;;;5041814;28;20030;-77
2024/01/10 07:39:18;;;;;;;22.65;9.73;;;;;;;;;;5044673;28;20028;-77
2024/01/10 07:41:45;;;;;;;19.05;8.15;;;;;;;;;;5058346;28;20118;-78
2024/01/10 07:44:11;;;;;;;17.52;7.30;;;;;;;;;;5061994;28;20017;-78
2024/01/10 07:46:38;;;;;;;17.13;7.18;;;;;;;;;;5067061;28;20426;-78
2024/01/10 07:49:04;;;;;;;15.88;7.10;;;;;;;;;;5040006;28;20084;-79
2024/01/10 07:51:32;;;;;;;17.40;7.90;;;;;;;;;;5054815;28;20048;-79
2024/01/10 07:53:59;;;;;;;19.35;8.68;;;;;;;;;;5049147;28;20025;-77
2024/01/10 07:56:25;;;;;;;25.63;10.13;;;;;;;;;;5060629;28;20028;-79
2024/01/10 07:58:52;;;;;;;28.10;10.93;;;;;;;;;;5058335;28;20021;-77
2024/01/10 08:01:19;;;;;;;29.70;11.30;;;;;;;;;;5077752;28;20036;-78
2024/01/10 08:03:46;;;;;;;34.55;13.32;;;;;;;;;;5043769;28;20057;-78
2024/01/10 08:06:12;;;;;;;31.63;13.07;;;;;;;;;;5066394;28;20020;-76
2024/01/10 08:08:38;;;;;;;33.60;12.82;;;;;;;;;;5044837;28;20034;-77
2024/01/10 08:11:05;;;;;;;30.27;12.55;;;;;;;;;;5045072;28;20411;-78
2024/01/10 08:13:31;;;;;;;33.20;12.35;;;;;;;;;;5037229;28;20383;-80
2024/01/10 08:16:00;;;;;;;35.20;13.32;;;;;;;;;;5051505;28;20022;-78
2024/01/10 08:18:26;;;;;;;27.42;11.90;;;;;;;;;;5079641;28;20032;-78
2024/01/10 08:20:52;;;;;;;28.10;11.65;;;;;;;;;;5085613;28;20228;-78
2024/01/10 08:23:18;;;;;;;30.33;12.43;;;;;;;;;;5081196;28;20052;-78
2024/01/10 08:25:44;;;;;;;30.55;11.95;;;;;;;;;;5050993;28;20116;-77
2024/01/10 08:28:10;;;;;;;34.70;13.23;;;;;;;;;;5045846;28;20063;-78
2024/01/10 08:30:36;;;;;;;34.67;12.85;;;;;;;;;;5052008;28;20027;-78
2024/01/10 08:33:04;;;;;;;27.55;12.02;;;;;;;;;;5060140;28;20021;-78
2024/01/10 08:35:30;;;;;;;30.10;12.50;;;;;;;;;;5052232;28;20025;-77
2024/01/10 08:37:56;;;;;;;32.67;13.25;;;;;;;;;;5061199;28;20044;-77
2024/01/10 08:40:25;;;;;;;35.20;13.98;;;;;;;;;;5048169;28;20055;-78
2024/01/10 08:42:52;;;;;;;36.00;14.48;;;;;;;;;;5061686;28;20078;-77
2024/01/10 08:45:18;;;;;;;37.60;15.05;;;;;;;;;;5052721;28;20091;-77
2024/01/10 08:47:44;;;;;;;34.33;14.88;;;;;;;;;;5072931;28;20395;-76
2024/01/10 08:50:11;;;;;;;32.40;13.85;;;;;;;;;;5065418;28;20034;-78
2024/01/10 08:52:40;;;;;;;30.65;13.25;;;;;;;;;;5056006;28;20044;-78
2024/01/10 08:55:06;;;;;;;31.77;13.13;;;;;;;;;;5056371;28;20029;-79
2024/01/10 08:57:32;;;;;;;34.58;14.80;;;;;;;;;;5056545;28;20033;-79
2024/01/10 08:59:59;;;;;;;39.22;17.08;;;;;;;;;;5071105;28;20045;-79
2024/01/10 09:02:27;;;;;;;36.47;14.85;;;;;;;;;;5066412;28;20021;-78
2024/01/10 09:04:54;;;;;;;36.97;15.38;;;;;;;;;;5056262;28;20082;-77
2024/01/10 09:07:21;;;;;;;39.47;14.57;;;;;;;;;;5059331;28;20077;-77
2024/01/10 09:09:47;;;;;;;34.42;14.90;;;;;;;;;;5051727;28;20106;-78
2024/01/10 09:12:14;;;;;;;32.10;14.05;;;;;;;;;;5054301;28;20024;-78
2024/01/10 09:14:40;;;;;;;34.00;13.38;;;;;;;;;;5061824;28;20028;-77
2024/01/10 09:17:07;;;;;;;32.42;13.23;;;;;;;;;;5048584;28;20071;-78
2024/01/10 09:19:33;;;;;;;40.33;16.70;;;;;;;;;;5064211;28;20051;-79
2024/01/10 09:21:59;;;;;;;41.25;16.73;;;;;;;;;;5059316;28;20033;-78
2024/01/10 09:24:29;;;;;;;44.83;18.27;;;;;;;;;;5064792;28;20029;-78
2024/01/10 09:26:55;;;;;;;41.63;17.33;;;;;;;;;;5062452;28;20029;-78
2024/01/10 09:29:22;;;;;;;37.08;16.83;;;;;;;;;;5068392;28;20020;-78
2024/01/10 09:31:48;;;;;;;37.70;14.25;;;;;;;;;;5069842;28;20025;-77
2024/01/10 09:34:14;;;;;;;37.17;14.98;;;;;;;;;;5060185;28;20021;-78
2024/01/10 09:36:40;;;;;;;32.58;13.57;;;;;;;;;;5061493;28;20017;-78
2024/01/10 09:39:13;;;;;;;37.53;16.58;;;;;;;;;;5062185;28;20041;-77
2024/01/10 09:41:41;;;;;;;37.03;15.82;;;;;;;;;;5054838;28;20029;-77
2024/01/10 09:44:07;;;;;;;32.70;15.98;;;;;;;;;;5059182;28;20454;-79
2024/01/10 09:46:35;;;;;;;35.80;15.07;;;;;;;;;;5057845;28;20033;-78
2024/01/10 09:49:01;;;;;;;37.80;15.43;;;;;;;;;;5055133;28;20090;-78
2024/01/10 09:51:28;;;;;;;35.45;15.35;;;;;;;;;;5065582;28;20020;-78
2024/01/10 09:53:54;;;;;;;47.42;18.73;;;;;;;;;;5066681;28;20089;-78
2024/01/10 09:56:20;;;;;;;50.47;19.90;;;;;;;;;;5059576;28;20025;-77
2024/01/10 09:58:49;;;;;;;45.63;18.83;;;;;;;;;;5047788;28;20034;-77
2024/01/10 10:01:15;;;;;;;45.92;18.25;;;;;;;;;;5072045;28;20076;-78
2024/01/10 10:03:43;;;;;;;40.40;15.82;;;;;;;;;;5067935;28;20021;-77
2024/01/10 10:06:09;;;;;;;42.58;17.90;;;;;;;;;;5040659;28;20030;-77
2024/01/10 10:08:35;;;;;;;44.70;20.50;;;;;;;;;;5038476;28;20083;-77
2024/01/10 10:11:02;;;;;;;47.58;19.88;;;;;;;;;;5049152;28;20026;-77
2024/01/10 10:13:29;;;;;;;47.15;20.17;;;;;;;;;;5054841;28;20037;-78
2024/01/10 10:16:02;;;;;;;43.75;18.80;;;;;;;;;;5076863;28;20009;-76
2024/01/10 10:18:31;;;;;;;41.65;18.48;;;;;;;;;;5066228;28;20021;-76
2024/01/10 10:21:09;;;;;;;46.85;17.52;;;;;;;;;;5057763;28;20036;-76
2024/01/10 10:23:35;;;;;;;37.60;16.20;;;;;;;;;;5075147;28;20051;-77
2024/01/10 10:26:10;;;;;;;46.67;19.58;;;;;;;;;;5073373;28;20107;-78
2024/01/10 10:28:36;;;;;;;40.08;18.80;;;;;;;;;;5068460;28;20025;-79
2024/01/10 10:31:03;;;;;;;36.38;16.67;;;;;;;;;;5069700;28;20016;-77
2024/01/10 10:33:32;;;;;;;36.13;16.65;;;;;;;;;;5070682;28;20036;-77
2024/01/10 10:35:59;;;;;;;39.22;17.02;;;;;;;;;;5085381;28;20020;-78
2024/01/10 10:38:25;;;;;;;39.40;15.90;;;;;;;;;;5077636;28;20040;-76
2024/01/10 10:40:53;;;;;;;38.63;17.70;;;;;;;;;;5072375;28;20024;-78
2024/01/10 10:43:20;;;;;;;45.20;19.52;;;;;;;;;;5094571;28;20084;-78
2024/01/10 10:45:48;;;;;;;45.80;20.90;;;;;;;;;;5074992;28;20036;-78
2024/01/10 10:48:21;;;;;;;43.15;20.38;;;;;;;;;;5053704;28;20033;-77
2024/01/10 10:50:56;;;;;;;46.65;20.38;;;;;;;;;;5078587;28;20051;-77
2024/01/10 10:53:23;;;;;;;47.78;22.15;;;;;;;;;;5078889;28;20031;-77
2024/01/10 10:55:51;;;;;;;45.53;19.70;;;;;;;;;;5062346;28;20041;-78
2024/01/10 10:58:18;;;;;;;46.20;19.85;;;;;;;;;;5085932;28;19998;-78
2024/01/10 11:00:44;;;;;;;38.75;17.48;;;;;;;;;;5075930;28;20044;-77
2024/01/10 11:03:13;;;;;;;42.50;17.95;;;;;;;;;;5078883;28;20024;-77
2024/01/10 11:05:41;;;;;;;48.40;19.83;;;;;;;;;;5066911;28;20056;-77
2024/01/10 11:08:10;;;;;;;46.33;19.63;;;;;;;;;;5060590;28;20055;-78
2024/01/10 11:10:38;;;;;;;51.83;23.33;;;;;;;;;;5077921;28;20031;-76
2024/01/10 11:13:35;;;;;;;48.42;21.48;;;;;;;;;;5065668;28;20032;-78
2024/01/10 11:16:25;;;;;;;50.67;21.40;;;;;;;;;;5072058;28;20017;-76
2024/01/10 11:19:10;;;;;;;47.80;19.08;;;;;;;;;;5041473;28;20059;-77
2024/01/10 11:21:55;;;;;;;48.72;19.98;;;;;;;;;;5054833;28;20020;-77
2024/01/10 11:24:21;;;;;;;51.08;19.58;;;;;;;;;;5076828;28;20040;-78
2024/01/10 11:26:47;;;;;;;45.63;17.60;;;;;;;;;;5052649;28;20032;-79
2024/01/10 11:29:15;;;;;;;36.65;17.52;;;;;;;;;;5060173;28;20033;-78
2024/01/10 11:31:42;;;;;;;37.55;17.35;;;;;;;;;;5061312;28;20057;-78
2024/01/10 11:34:09;;;;;;;43.05;19.33;;;;;;;;;;5059941;28;20060;-79
2024/01/10 11:36:36;;;;;;;44.42;19.75;;;;;;;;;;5054921;28;20545;-79
2024/01/10 11:39:06;;;;;;;43.20;19.45;;;;;;;;;;5059108;28;20036;-79
2024/01/10 11:41:32;;;;;;;40.92;18.27;;;;;;;;;;5077495;28;20070;-78
2024/01/10 11:44:22;;;;;;;38.30;16.10;;;;;;;;;;5046765;28;20068;-79
2024/01/10 11:46:48;;;;;;;35.38;15.48;;;;;;;;;;5068282;28;20044;-76
2024/01/10 11:49:15;;;;;;;37.75;15.98;;;;;;;;;;5086608;28;20021;-78
2024/01/10 11:51:45;;;;;;;31.67;14.68;;;;;;;;;;5060649;28;20025;-77
2024/01/10 11:54:12;;;;;;;31.30;14.07;;;;;;;;;;5065545;28;20060;-76
2024/01/10 11:56:41;;;;;;;30.77;13.88;;;;;;;;;;5063377;28;20025;-76
2024/01/10 11:59:10;;;;;;;38.55;17.08;;;;;;;;;;5055786;28;20082;-77
2024/01/10 12:01:37;;;;;;;55.30;23.17;;;;;;;;;;5066191;28;20032;-77
2024/01/10 12:04:06;;;;;;;64.55;26.30;;;;;;;;;;5062578;28;20036;-78
2024/01/10 12:06:33;;;;;;;54.38;23.98;;;;;;;;;;5049017;28;20047;-79
2024/01/10 12:08:59;;;;;;;49.47;21.75;;;;;;;;;;5056821;28;20455;-78
2024/01/10 12:11:26;;;;;;;54.15;23.88;;;;;;;;;;5038595;28;20116;-77
2024/01/10 12:13:53;;;;;;;56.67;23.10;;;;;;;;;;5050943;28;20040;-79
2024/01/10 12:16:19;;;;;;;47.58;21.70;;;;;;;;;;5055672;28;20029;-80
2024/01/10 12:18:45;;;;;;;47.00;20.00;;;;;;;;;;5043861;28;20082;-77
2024/01/10 12:21:12;;;;;;;46.58;19.20;;;;;;;;;;5055538;28;20111;-78
2024/01/10 12:23:38;;;;;;;43.63;18.40;;;;;;;;;;5069321;28;20045;-78
2024/01/10 12:26:09;;;;;;;39.30;17.58;;;;;;;;;;5062837;28;20094;-79
2024/01/10 12:28:36;;;;;;;37.78;17.70;;;;;;;;;;5056933;28;20033;-79
2024/01/10 12:31:04;;;;;;;37.95;17.67;;;;;;;;;;5059212;28;20051;-79
2024/01/10 12:33:32;;;;;;;34.63;16.05;;;;;;;;;;5054556;28;20017;-78
2024/01/10 12:36:09;;;;;;;36.20;17.63;;;;;;;;;;5057749;28;20025;-78
2024/01/10 12:38:36;;;;;;;34.70;15.45;;;;;;;;;;5057366;28;20021;-79
2024/01/10 12:41:02;;;;;;;40.28;18.52;;;;;;;;;;5045393;28;20032;-79
2024/01/10 12:43:29;;;;;;;42.20;17.30;;;;;;;;;;5040515;28;20040;-79
2024/01/10 12:46:12;;;;;;;36.30;15.77;;;;;;;;;;5049530;28;20111;-78
2024/01/10 12:48:41;;;;;;;37.05;16.23;;;;;;;;;;5047194;28;20112;-79
2024/01/10 12:51:12;;;;;;;32.05;15.13;;;;;;;;;;5048140;28;20033;-79
2024/01/10 12:53:41;;;;;;;34.40;15.20;;;;;;;;;;5042511;28;20037;-79
2024/01/10 12:56:08;;;;;;;32.40;15.30;;;;;;;;;;5052680;28;20034;-78
2024/01/10 12:58:36;;;;;;;32.08;14.43;;;;;;;;;;5048364;28;20026;-76
2024/01/10 13:01:05;;;;;;;33.67;13.57;;;;;;;;;;5055868;28;20029;-79
2024/01/10 13:03:31;;;;;;;27.38;12.40;;;;;;;;;;5048890;28;20095;-79
2024/01/10 13:05:58;;;;;;;32.22;15.23;;;;;;;;;;5054547;28;20021;-79
2024/01/10 13:08:24;;;;;;;27.02;14.20;;;;;;;;;;5049824;28;20719;-78
2024/01/10 13:10:50;;;;;;;41.15;15.25;;;;;;;;;;5046828;28;20039;-81
2024/01/10 13:13:21;;;;;;;36.15;16.27;;;;;;;;;;5038400;28;20511;-78
2024/01/10 13:15:48;;;;;;;46.13;19.45;;;;;;;;;;5052656;28;20032;-78
2024/01/10 13:18:15;;;;;;;39.88;17.02;;;;;;;;;;5045019;28;20100;-78
2024/01/10 13:20:41;;;;;;;50.30;20.13;;;;;;;;;;5042985;28;20028;-78
2024/01/10 13:23:07;;;;;;;49.03;20.73;;;;;;;;;;5050606;28;20033;-79
2024/01/10 13:25:34;;;;;;;51.28;20.73;;;;;;;;;;5043969;28;20041;-78
2024/01/10 13:28:00;;;;;;;41.17;18.77;;;;;;;;;;5072713;28;20043;-79
2024/01/10 13:30:27;;;;;;;47.60;20.42;;;;;;;;;;5061708;28;20025;-79
2024/01/10 13:32:53;;;;;;;53.50;22.40;;;;;;;;;;5054240;28;20036;-79
2024/01/10 13:35:19;;;;;;;45.83;20.77;;;;;;;;;;5046578;28;20025;-78
2024/01/10 13:37:46;;;;;;;48.22;19.08;;;;;;;;;;5056245;28;20079;-78
2024/01/10 13:40:13;;;;;;;44.42;19.15;;;;;;;;;;5061693;28;20047;-77
2024/01/10 13:42:39;;;;;;;53.95;22.45;;;;;;;;;;5065587;28;20013;-76
2024/01/10 13:45:06;;;;;;;50.08;21.23;;;;;;;;;;5062259;28;20025;-77
2024/01/10 13:47:35;;;;;;;48.35;20.92;;;;;;;;;;5052148;28;20032;-78
2024/01/10 13:50:03;;;;;;;46.85;19.65;;;;;;;;;;5046253;28;20046;-78
2024/01/10 13:52:29;;;;;;;44.47;19.20;;;;;;;;;;5047851;28;20057;-79
2024/01/10 13:54:56;;;;;;;44.35;19.10;;;;;;;;;;5048825;28;20033;-79
2024/01/10 13:57:22;;;;;;;45.42;19.92;;;;;;;;;;5046614;28;20040;-78
2024/01/10 13:59:49;;;;;;;46.38;18.50;;;;;;;;;;5060507;28;20021;-77
2024/01/10 14:02:15;;;;;;;54.42;22.85;;;;;;;;;;5057342;28;20046;-77
2024/01/10 14:04:42;;;;;;;44.72;19.75;;;;;;;;;;5036781;28;20040;-77
2024/01/10 14:07:08;;;;;;;49.08;19.67;;;;;;;;;;5056119;28;20108;-78
2024/01/10 14:09:38;;;;;;;41.10;18.30;;;;;;;;;;5042672;28;20036;-78
2024/01/10 14:12:04;;;;;;;42.67;17.67;;;;;;;;;;5036684;28;20032;-78
2024/01/10 14:14:32;;;;;;;43.00;17.08;;;;;;;;;;5037045;28;20168;-78
2024/01/10 14:16:58;;;;;;;41.42;16.45;;;;;;;;;;5055537;28;20040;-78
2024/01/10 14:19:24;;;;;;;41.08;16.60;;;;;;;;;;5066366;28;20039;-77